createdAt,value
2022-07-27T00:00:59.451Z,14.99
2022-07-27T00:06:02.903Z,14.94
2022-07-27T00:11:06.597Z,14.94
2022-07-27T00:16:10.959Z,14.90
2022-07-27T00:21:14.896Z,14.96
2022-07-27T00:26:17.988Z,14.89
2022-07-27T00:31:22.420Z,14.86
2022-07-27T00:36:25.397Z,14.85
2022-07-27T00:41:28.461Z,14.77
2022-07-27T00:46:32.851Z,14.74
2022-07-27T00:51:36.188Z,14.66
2022-07-27T00:56:39.642Z,14.64
2022-07-27T01:01:44.278Z,14.65
2022-07-27T01:06:47.328Z,14.63
2022-07-27T01:11:50.514Z,14.58
2022-07-27T01:16:55.005Z,14.56
2022-07-27T01:21:59.531Z,14.56
2022-07-27T01:27:03.684Z,14.55
2022-07-27T01:32:07.615Z,14.48
2022-07-27T01:37:11.966Z,14.46
2022-07-27T01:42:16.445Z,14.38
2022-07-27T01:47:19.334Z,14.42
2022-07-27T01:52:23.671Z,14.36
2022-07-27T01:57:26.764Z,14.35
2022-07-27T02:02:29.817Z,14.35
2022-07-27T02:07:34.128Z,14.34
2022-07-27T02:12:37.201Z,14.24
2022-07-27T02:17:40.837Z,14.22
2022-07-27T02:22:47.256Z,14.23
2022-07-27T02:27:50.534Z,14.25
2022-07-27T02:32:53.688Z,14.34
2022-07-27T02:37:58.126Z,14.38
2022-07-27T02:43:01.088Z,14.44
2022-07-27T02:48:04.300Z,14.47
2022-07-27T02:53:08.890Z,14.54
2022-07-27T02:58:12.035Z,14.56
2022-07-27T03:03:15.376Z,14.63
2022-07-27T03:08:19.855Z,14.70
2022-07-27T03:13:22.804Z,14.77
2022-07-27T03:18:26.169Z,14.76
2022-07-27T03:23:33.288Z,14.77
2022-07-27T03:28:38.323Z,14.76
2022-07-27T03:33:42.398Z,14.76
2022-07-27T03:38:46.792Z,14.73
2022-07-27T03:43:50.082Z,14.77
2022-07-27T03:48:53.113Z,14.72
2022-07-27T03:53:58.825Z,14.75
2022-07-27T03:59:02.685Z,14.79
2022-07-27T04:04:06.020Z,14.78
2022-07-27T04:09:10.457Z,14.80
2022-07-27T04:14:17.893Z,14.82
2022-07-27T04:19:20.893Z,14.88
2022-07-27T04:24:25.414Z,14.96
2022-07-27T04:29:28.974Z,15.05
2022-07-27T04:34:31.971Z,15.22
2022-07-27T04:39:36.531Z,15.31
2022-07-27T04:44:39.514Z,15.38
2022-07-27T04:49:42.656Z,15.45
2022-07-27T04:54:47.256Z,15.46
2022-07-27T04:59:50.922Z,15.47
2022-07-27T05:04:53.836Z,15.47
2022-07-27T05:09:58.192Z,15.51
2022-07-27T05:15:01.164Z,15.60
2022-07-27T05:20:04.746Z,15.70
2022-07-27T05:25:10.295Z,15.84
2022-07-27T05:30:14.275Z,15.76
2022-07-27T05:35:17.477Z,15.73
2022-07-27T05:40:21.899Z,15.79
2022-07-27T05:45:26.238Z,15.93
2022-07-27T05:50:29.352Z,16.01
2022-07-27T05:55:34.137Z,15.95
2022-07-27T06:00:37.388Z,15.90
2022-07-27T06:05:40.434Z,15.99
2022-07-27T06:10:45.055Z,16.14
2022-07-27T06:15:48.019Z,16.21
2022-07-27T06:20:50.922Z,16.43
2022-07-27T06:25:55.480Z,16.54
2022-07-27T06:30:58.646Z,16.65
2022-07-27T06:36:05.474Z,16.90
2022-07-27T06:41:10.098Z,17.19
2022-07-27T06:46:14.364Z,17.40
2022-07-27T06:51:17.337Z,17.48
2022-07-27T06:56:22.376Z,17.60
2022-07-27T07:01:25.846Z,17.88
2022-07-27T07:06:28.923Z,18.10
2022-07-27T07:11:33.366Z,18.28
2022-07-27T07:16:36.609Z,18.52
2022-07-27T07:21:39.857Z,18.69
2022-07-27T07:26:45.222Z,18.86
2022-07-27T07:31:48.535Z,18.88
2022-07-27T07:36:51.666Z,19.17
2022-07-27T07:41:56.212Z,19.51
2022-07-27T07:46:59.272Z,19.76
2022-07-27T07:52:02.381Z,19.86
2022-07-27T07:57:07.023Z,19.30
2022-07-27T08:02:10.370Z,18.93
2022-07-27T08:07:13.587Z,18.67
2022-07-27T08:12:18.112Z,18.49
2022-07-27T08:17:21.159Z,18.85
2022-07-27T08:22:24.274Z,19.04
2022-07-27T08:27:29.140Z,19.19
2022-07-27T08:32:32.463Z,19.74
2022-07-27T08:37:35.677Z,20.36
2022-07-27T08:42:42.709Z,20.48
2022-07-27T08:47:46.925Z,20.88
2022-07-27T08:52:53.773Z,21.73
2022-07-27T08:58:02.742Z,21.97
2022-07-27T09:03:06.908Z,21.24
2022-07-27T09:08:11.671Z,21.53
2022-07-27T09:13:22.212Z,21.68
2022-07-27T09:18:27.950Z,22.08
2022-07-27T09:23:31.017Z,22.01
2022-07-27T09:28:35.960Z,22.09
2022-07-27T09:33:45.996Z,22.10
2022-07-27T09:38:58.725Z,22.39
2022-07-27T09:49:32.548Z,22.65
2022-07-27T09:54:43.629Z,22.53
2022-07-27T09:59:48.475Z,22.73
2022-07-27T10:04:51.916Z,22.33
2022-07-27T10:09:55.657Z,22.54
2022-07-27T10:15:02.455Z,22.96
2022-07-27T10:20:09.376Z,23.23
2022-07-27T10:25:12.549Z,23.33
2022-07-27T10:30:24.018Z,23.49
2022-07-27T10:35:35.310Z,23.68
2022-07-27T10:40:39.254Z,23.67
2022-07-27T10:45:55.365Z,24.24
2022-07-27T10:51:07.132Z,24.56
2022-07-27T10:56:11.556Z,24.90
2022-07-27T11:01:17.170Z,24.69
2022-07-27T11:06:36.273Z,24.63
2022-07-27T11:11:45.510Z,25.21
2022-07-27T11:16:56.640Z,25.84
2022-07-27T11:22:04.698Z,24.79
2022-07-27T11:27:16.804Z,24.26
2022-07-27T11:32:23.659Z,24.23
2022-07-27T11:37:26.712Z,24.27
2022-07-27T11:42:38.458Z,24.72
2022-07-27T11:47:43.723Z,25.16
2022-07-27T11:53:01.264Z,25.57
2022-07-27T11:58:05.216Z,25.15
2022-07-27T12:03:20.767Z,24.78
2022-07-27T12:08:24.436Z,24.28
2022-07-27T12:13:33.955Z,24.51
2022-07-27T12:18:44.720Z,25.27
2022-07-27T12:23:52.750Z,25.91
2022-07-27T12:29:10.791Z,25.34
2022-07-27T12:34:17.020Z,24.79
2022-07-27T12:39:30.545Z,24.54
2022-07-27T12:44:34.737Z,24.53
2022-07-27T12:49:44.602Z,24.31
2022-07-27T12:54:49.570Z,24.14
2022-07-27T12:59:52.859Z,24.19
2022-07-27T13:04:57.385Z,24.75
2022-07-27T13:10:03.288Z,24.95
2022-07-27T13:15:08.995Z,25.24
2022-07-27T13:20:14.756Z,24.94
2022-07-27T13:25:21.197Z,24.36
2022-07-27T13:30:25.103Z,24.46
2022-07-27T13:35:29.923Z,24.66
2022-07-27T13:40:33.173Z,24.42
2022-07-27T13:45:43.056Z,23.98
2022-07-27T13:50:50.262Z,23.60
2022-07-27T13:55:53.417Z,23.59
2022-07-27T14:00:56.844Z,23.63
2022-07-27T14:06:01.430Z,23.60
2022-07-27T14:11:05.323Z,23.65
2022-07-27T14:16:10.760Z,24.45
2022-07-27T14:21:16.328Z,24.66
2022-07-27T14:26:19.976Z,24.28
2022-07-27T14:31:23.110Z,24.30
2022-07-27T14:36:27.985Z,23.90
2022-07-27T14:41:31.638Z,23.90
2022-07-27T14:46:34.941Z,23.78
2022-07-27T14:51:39.522Z,23.73
2022-07-27T14:56:42.463Z,23.68
2022-07-27T15:01:45.828Z,23.80
2022-07-27T15:06:50.354Z,23.71
2022-07-27T15:11:53.664Z,23.74
2022-07-27T15:16:57.565Z,23.69
2022-07-27T15:22:01.977Z,23.65
2022-07-27T15:27:05.603Z,24.03
2022-07-27T15:32:09.453Z,23.79
2022-07-27T15:37:14.524Z,23.57
2022-07-27T15:42:17.632Z,23.44
2022-07-27T15:47:20.568Z,23.51
2022-07-27T15:52:25.202Z,23.61
2022-07-27T15:57:28.166Z,23.55
2022-07-27T16:02:31.159Z,23.34
2022-07-27T16:07:41.419Z,23.24
2022-07-27T16:12:45.095Z,23.11
2022-07-27T16:17:48.308Z,22.99
2022-07-27T16:22:52.860Z,22.89
2022-07-27T16:27:56.112Z,23.04
2022-07-27T16:32:59.569Z,23.06
2022-07-27T16:38:04.063Z,22.96
2022-07-27T16:43:07.233Z,23.04
2022-07-27T16:48:12.296Z,22.98
2022-07-27T16:53:17.300Z,23.14
2022-07-27T16:58:20.443Z,23.04
2022-07-27T17:03:23.604Z,23.02
2022-07-27T17:08:28.067Z,22.88
2022-07-27T17:13:34.249Z,22.64
2022-07-27T17:18:40.472Z,22.30
2022-07-27T17:23:45.274Z,22.11
2022-07-27T17:28:48.281Z,21.87
2022-07-27T17:33:51.912Z,21.80
2022-07-27T17:38:56.588Z,21.75
2022-07-27T17:44:00.696Z,21.67
2022-07-27T17:49:03.897Z,21.50
2022-07-27T17:54:08.301Z,21.38
2022-07-27T18:03:57.286Z,21.14
2022-07-27T18:09:00.518Z,21.07
2022-07-27T18:14:03.490Z,21.16
2022-07-27T18:19:07.924Z,21.20
2022-07-27T18:24:11.053Z,21.24
2022-07-27T18:29:16.205Z,21.15
2022-07-27T18:34:20.786Z,20.99
2022-07-27T18:39:28.821Z,20.91
2022-07-27T18:44:39.075Z,20.81
2022-07-27T18:49:44.890Z,20.59
2022-07-27T18:54:48.346Z,20.47
2022-07-27T18:59:53.456Z,20.38
2022-07-27T19:04:57.866Z,20.23
2022-07-27T19:10:01.354Z,20.05
2022-07-27T19:15:05.554Z,19.86
2022-07-27T19:20:11.595Z,19.75
2022-07-27T19:25:15.787Z,19.65
2022-07-27T19:30:19.292Z,19.44
2022-07-27T19:35:23.710Z,19.29
2022-07-27T19:40:43.977Z,19.07
2022-07-27T19:45:48.804Z,18.95
2022-07-27T19:50:53.375Z,18.78
2022-07-27T19:55:58.122Z,18.62
2022-07-27T20:01:01.405Z,18.50
2022-07-27T20:06:06.849Z,18.37
2022-07-27T20:11:09.907Z,18.22
2022-07-27T20:16:14.421Z,18.08
2022-07-27T20:21:22.785Z,17.98
2022-07-27T20:26:26.532Z,17.91
2022-07-27T20:31:29.578Z,17.84
2022-07-27T20:36:34.058Z,17.76
2022-07-27T20:41:37.144Z,17.63
2022-07-27T20:46:40.422Z,17.56
2022-07-27T20:51:44.817Z,17.49
2022-07-27T20:56:50.567Z,17.40
2022-07-27T21:01:53.961Z,17.34
2022-07-27T21:06:58.534Z,17.22
2022-07-27T21:12:01.853Z,17.23
2022-07-27T21:17:05.027Z,17.23
2022-07-27T21:22:09.596Z,17.18
2022-07-27T21:27:12.715Z,17.10
2022-07-27T21:32:15.862Z,17.08
2022-07-27T21:37:20.493Z,17.01
2022-07-27T21:42:23.509Z,16.95
2022-07-27T21:47:26.519Z,16.96
2022-07-27T21:52:30.869Z,16.94
2022-07-27T21:57:34.062Z,16.97
2022-07-27T22:02:37.188Z,16.96
2022-07-27T22:07:41.580Z,16.97
2022-07-27T22:12:44.531Z,16.96
2022-07-27T22:17:50.083Z,16.94
2022-07-27T22:22:55.448Z,16.82
2022-07-27T22:27:58.478Z,16.77
2022-07-27T22:33:02.325Z,16.73
2022-07-27T22:38:06.881Z,16.64
2022-07-27T22:43:09.903Z,16.60
2022-07-27T22:48:13.551Z,16.50
2022-07-27T22:53:18.309Z,16.53
2022-07-27T22:58:21.964Z,16.50
2022-07-27T23:03:25.209Z,16.47
2022-07-27T23:08:29.619Z,16.45
2022-07-27T23:13:33.749Z,16.44
2022-07-27T23:18:37.031Z,16.40
2022-07-27T23:23:53.648Z,16.38
2022-07-27T23:28:57.221Z,16.32
2022-07-27T23:34:00.654Z,16.31
2022-07-27T23:39:05.107Z,16.32
2022-07-27T23:44:08.058Z,16.27
2022-07-27T23:49:11.326Z,16.24
2022-07-27T23:54:16.032Z,16.14
2022-07-27T23:59:19.372Z,16.04
